Language: 


Des rapports , des résumés tant et plus, au choix de chacun....


Données Historiques de Météogheer
Journalier Rapport pour Janvier 19, 2018 Unitée:  Les deux    Impériale   Métrique
Suivant Jour »
Journalier Hebdomadaire Mensuel Annuel Sur mesure
  Max: Min: Moyenne:
Température: 47.3 °F /  8.5 °C 30.6 °F /  -0.8 °C 38.3 °F /  3.5 °C
Point de rosée: 41 °F /  5.0 °C 28.4 °F /  -2.0 °C 34 °F /  1.1 °C
Humidité: 98% 58% 85%
Vent: 15.7mph /  25.3km/h - 3.7mph /  6km/h
Rafales: 20.1mph /  32.3km/h - -
Vent- - WSW
Pression: 29.8 in /  1010.0 hPa 29.6 in /  1003.9 hPa -
Pluie: 0 in /  0.0 mm    
Historical Graphs
 
 
Données tabulaires pour Janvier 19, 2018
Heure Température Point de rosée Pression Vent Vent Rafales Humidité Pluie Taux (Horaire) Conditions
00:01 40.1 °F /  4.5 °C 39.2 °F /  4.0 °C 29.6in /  1003.9hPa West 7.4mph /  11.9km/h 9.2mph /  14.8km/h 93% 0in /  0.0mm
00:06 39.9 °F /  4.4 °C 37.4 °F /  3.0 °C 29.6in /  1003.9hPa West 9.2mph /  14.8km/h 9.8mph /  15.8km/h 93% 0in /  0.0mm
00:11 40.1 °F /  4.5 °C 37.4 °F /  3.0 °C 29.6in /  1003.9hPa West 4.3mph /  6.9km/h 11.9mph /  19.1km/h 92% 0in /  0.0mm
00:16 40.1 °F /  4.5 °C 37.4 °F /  3.0 °C 29.7in /  1005.0hPa WSW 6mph /  9.7km/h 11.9mph /  19.1km/h 92% 0in /  0.0mm
00:21 39.9 °F /  4.4 °C 37.4 °F /  3.0 °C 29.7in /  1005.0hPa WSW 11mph /  17.7km/h 11mph /  17.7km/h 91% 0in /  0.0mm
00:26 40.1 °F /  4.5 °C 37.4 °F /  3.0 °C 29.7in /  1005.0hPa WSW 11mph /  17.7km/h 12.1mph /  19.5km/h 91% 0in /  0.0mm
00:32 40.1 °F /  4.5 °C 37.4 °F /  3.0 °C 29.7in /  1005.0hPa WSW 9.4mph /  15.1km/h 12.1mph /  19.5km/h 91% 0in /  0.0mm
00:37 40.1 °F /  4.5 °C 37.4 °F /  3.0 °C 29.7in /  1005.0hPa West 4.3mph /  6.9km/h 12.8mph /  20.6km/h 91% 0in /  0.0mm
00:42 39.9 °F /  4.4 °C 37.4 °F /  3.0 °C 29.7in /  1005.0hPa West 7.8mph /  12.6km/h 12.8mph /  20.6km/h 90% 0in /  0.0mm
00:47 39.9 °F /  4.4 °C 37.4 °F /  3.0 °C 29.7in /  1005.0hPa WSW 7.4mph /  11.9km/h 11mph /  17.7km/h 89% 0in /  0.0mm
00:52 39.9 °F /  4.4 °C 37.4 °F /  3.0 °C 29.7in /  1005.0hPa West 10.1mph /  16.3km/h 11mph /  17.7km/h 89% 0in /  0.0mm
00:57 39.9 °F /  4.4 °C 37.4 °F /  3.0 °C 29.7in /  1005.0hPa West 6.9mph /  11.1km/h 10.5mph /  16.9km/h 89% 0in /  0.0mm
01:02 39.9 °F /  4.4 °C 37.4 °F /  3.0 °C 29.6in /  1003.9hPa West 9.6mph /  15.4km/h 9.8mph /  15.8km/h 89% 0in /  0.0mm
01:07 39.9 °F /  4.4 °C 37.4 °F /  3.0 °C 29.6in /  1003.9hPa West 7.8mph /  12.6km/h 9.6mph /  15.4km/h 88% 0in /  0.0mm
01:12 39.9 °F /  4.4 °C 37.4 °F /  3.0 °C 29.6in /  1003.9hPa WSW 8.7mph /  14.0km/h 9.8mph /  15.8km/h 88% 0in /  0.0mm
01:17 39.7 °F /  4.3 °C 37.4 °F /  3.0 °C 29.6in /  1003.9hPa WSW 8.5mph /  13.7km/h 9.8mph /  15.8km/h 88% 0in /  0.0mm
01:22 39.6 °F /  4.2 °C 37.4 °F /  3.0 °C 29.6in /  1003.9hPa West 7.6mph /  12.2km/h 9.8mph /  15.8km/h 87% 0in /  0.0mm
01:27 39.6 °F /  4.2 °C 37.4 °F /  3.0 °C 29.6in /  1003.9hPa West 6mph /  9.7km/h 7.6mph /  12.2km/h 87% 0in /  0.0mm
01:32 39.4 °F /  4.1 °C 35.6 °F /  2.0 °C 29.7in /  1005.0hPa West 6.3mph /  10.1km/h 7.8mph /  12.6km/h 87% 0in /  0.0mm
01:37 39.4 °F /  4.1 °C 35.6 °F /  2.0 °C 29.7in /  1005.0hPa West 2.9mph /  4.7km/h 8.1mph /  13.0km/h 87% 0in /  0.0mm
01:42 39.4 °F /  4.1 °C 35.6 °F /  2.0 °C 29.7in /  1005.0hPa WNW 6mph /  9.7km/h 11mph /  17.7km/h 87% 0in /  0.0mm
01:47 39.4 °F /  4.1 °C 35.6 °F /  2.0 °C 29.7in /  1005.0hPa West 6.3mph /  10.1km/h 11mph /  17.7km/h 87% 0in /  0.0mm
01:52 39.4 °F /  4.1 °C 35.6 °F /  2.0 °C 29.7in /  1005.0hPa West 7.6mph /  12.2km/h 8.5mph /  13.7km/h 87% 0in /  0.0mm
01:57 39.4 °F /  4.1 °C 35.6 °F /  2.0 °C 29.7in /  1005.0hPa WSW 6.3mph /  10.1km/h 10.5mph /  16.9km/h 87% 0in /  0.0mm
02:02 39.4 °F /  4.1 °C 35.6 °F /  2.0 °C 29.7in /  1006.0hPa WSW 4.9mph /  7.9km/h 10.5mph /  16.9km/h 87% 0in /  0.0mm
02:07 39.2 °F /  4.0 °C 35.6 °F /  2.0 °C 29.7in /  1006.0hPa West 6.3mph /  10.1km/h 8.5mph /  13.7km/h 87% 0in /  0.0mm
02:12 39.2 °F /  4.0 °C 35.6 °F /  2.0 °C 29.7in /  1006.0hPa WSW 7.6mph /  12.2km/h 10.3mph /  16.6km/h 87% 0in /  0.0mm
02:17 39.2 °F /  4.0 °C 35.6 °F /  2.0 °C 29.7in /  1006.0hPa West 6.3mph /  10.1km/h 10.3mph /  16.6km/h 87% 0in /  0.0mm
02:22 38.8 °F /  3.8 °C 35.6 °F /  2.0 °C 29.7in /  1006.0hPa West 6mph /  9.7km/h 8.7mph /  14.0km/h 87% 0in /  0.0mm
02:27 38.8 °F /  3.8 °C 35.6 °F /  2.0 °C 29.7in /  1006.0hPa WSW 6.5mph /  10.5km/h 8.7mph /  14.0km/h 87% 0in /  0.0mm
02:32 38.7 °F /  3.7 °C 35.6 °F /  2.0 °C 29.7in /  1006.0hPa West 5.6mph /  9.0km/h 8.5mph /  13.7km/h 87% 0in /  0.0mm
02:38 38.5 °F /  3.6 °C 35.6 °F /  2.0 °C 29.7in /  1006.0hPa WSW 6.3mph /  10.1km/h 8.7mph /  14.0km/h 87% 0in /  0.0mm
02:43 38.3 °F /  3.5 °C 35.6 °F /  2.0 °C 29.7in /  1006.0hPa West 6.3mph /  10.1km/h 8.7mph /  14.0km/h 87% 0in /  0.0mm
02:48 38.1 °F /  3.4 °C 35.6 °F /  2.0 °C 29.7in /  1006.0hPa WSW 7.6mph /  12.2km/h 8.1mph /  13.0km/h 87% 0in /  0.0mm
02:53 37.9 °F /  3.3 °C 35.6 °F /  2.0 °C 29.7in /  1006.0hPa West 5.8mph /  9.3km/h 7.8mph /  12.6km/h 87% 0in /  0.0mm
02:58 37.8 °F /  3.2 °C 35.6 °F /  2.0 °C 29.7in /  1006.0hPa WSW 5.8mph /  9.3km/h 7.8mph /  12.6km/h 87% 0in /  0.0mm
03:03 37.6 °F /  3.1 °C 33.8 °F /  1.0 °C 29.7in /  1007.0hPa Calm   6.5mph /  10.5km/h 87% 0in /  0.0mm
03:08 37.4 °F /  3.0 °C 33.8 °F /  1.0 °C 29.7in /  1007.0hPa WSW 4.7mph /  7.6km/h 7.6mph /  12.2km/h 87% 0in /  0.0mm
03:13 37.2 °F /  2.9 °C 33.8 °F /  1.0 °C 29.7in /  1007.0hPa WSW 5.8mph /  9.3km/h 7.6mph /  12.2km/h 88% 0in /  0.0mm
03:18 37.2 °F /  2.9 °C 33.8 °F /  1.0 °C 29.7in /  1007.0hPa West 6mph /  9.7km/h 7.6mph /  12.2km/h 88% 0in /  0.0mm
03:23 37 °F /  2.8 °C 33.8 °F /  1.0 °C 29.7in /  1007.0hPa WSW 5.6mph /  9.0km/h 7.6mph /  12.2km/h 88% 0in /  0.0mm
03:28 36.7 °F /  2.6 °C 33.8 °F /  1.0 °C 29.7in /  1007.0hPa WSW 2.7mph /  4.3km/h 6.9mph /  11.1km/h 88% 0in /  0.0mm
03:33 36.7 °F /  2.6 °C 33.8 °F /  1.0 °C 29.7in /  1007.0hPa West 6.3mph /  10.1km/h 6.9mph /  11.1km/h 88% 0in /  0.0mm
03:38 36.5 °F /  2.5 °C 33.8 °F /  1.0 °C 29.7in /  1007.0hPa West 4mph /  6.4km/h 6.7mph /  10.8km/h 89% 0in /  0.0mm
03:43 36.5 °F /  2.5 °C 33.8 °F /  1.0 °C 29.7in /  1007.0hPa Calm   6.5mph /  10.5km/h 89% 0in /  0.0mm
03:48 36.3 °F /  2.4 °C 33.8 °F /  1.0 °C 29.7in /  1007.0hPa West 5.8mph /  9.3km/h 6.5mph /  10.5km/h 89% 0in /  0.0mm
03:53 36 °F /  2.2 °C 33.8 °F /  1.0 °C 29.7in /  1007.0hPa Calm   6.5mph /  10.5km/h 89% 0in /  0.0mm
03:58 35.6 °F /  2.0 °C 33.8 °F /  1.0 °C 29.7in /  1007.0hPa WSW 3.6mph /  5.8km/h 6.3mph /  10.1km/h 88% 0in /  0.0mm
04:03 35.4 °F /  1.9 °C 33.8 °F /  1.0 °C 29.7in /  1007.0hPa Calm   5.8mph /  9.3km/h 89% 0in /  0.0mm
04:08 35.1 °F /  1.7 °C 32 °F /  0.0 °C 29.7in /  1007.0hPa Calm   4.7mph /  7.6km/h 89% 0in /  0.0mm
04:13 34.9 °F /  1.6 °C 32 °F /  0.0 °C 29.7in /  1007.0hPa Calm   4.3mph /  6.9km/h 89% 0in /  0.0mm
04:19 34.9 °F /  1.6 °C 32 °F /  0.0 °C 29.7in /  1007.0hPa Calm   4mph /  6.4km/h 89% 0in /  0.0mm
04:24 34.2 °F /  1.2 °C 32 °F /  0.0 °C 29.7in /  1007.0hPa Calm   3.6mph /  5.8km/h 89% 0in /  0.0mm
04:29 34 °F /  1.1 °C 32 °F /  0.0 °C 29.7in /  1007.0hPa Calm     89% 0in /  0.0mm
04:34 34 °F /  1.1 °C 32 °F /  0.0 °C 29.7in /  1007.0hPa Calm     90% 0in /  0.0mm
04:39 33.8 °F /  1.0 °C 32 °F /  0.0 °C 29.7in /  1007.0hPa Calm   2.5mph /  4.0km/h 90% 0in /  0.0mm
04:44 33.8 °F /  1.0 °C 32 °F /  0.0 °C 29.7in /  1007.0hPa Calm   2.5mph /  4.0km/h 91% 0in /  0.0mm
04:49 33.6 °F /  0.9 °C 32 °F /  0.0 °C 29.7in /  1007.0hPa Calm   2.5mph /  4.0km/h 91% 0in /  0.0mm
04:54 33.8 °F /  1.0 °C 32 °F /  0.0 °C 29.7in /  1007.0hPa Calm   2mph /  3.2km/h 92% 0in /  0.0mm
04:59 33.8 °F /  1.0 °C 32 °F /  0.0 °C 29.7in /  1007.0hPa Calm     92% 0in /  0.0mm
05:04 33.8 °F /  1.0 °C 32 °F /  0.0 °C 29.7in /  1007.0hPa Calm     93% 0in /  0.0mm
05:09 33.8 °F /  1.0 °C 32 °F /  0.0 °C 29.7in /  1007.0hPa Calm   0.9mph /  1.4km/h 93% 0in /  0.0mm
05:14 33.8 °F /  1.0 °C 32 °F /  0.0 °C 29.7in /  1006.0hPa Calm   1.3mph /  2.1km/h 93% 0in /  0.0mm
05:19 33.6 °F /  0.9 °C 32 °F /  0.0 °C 29.7in /  1006.0hPa Calm   1.3mph /  2.1km/h 94% 0in /  0.0mm
05:24 33.6 °F /  0.9 °C 32 °F /  0.0 °C 29.7in /  1006.0hPa Calm     94% 0in /  0.0mm
05:29 33.4 °F /  0.8 °C 32 °F /  0.0 °C 29.7in /  1007.0hPa Calm   2.9mph /  4.7km/h 94% 0in /  0.0mm
05:34 33.3 °F /  0.7 °C 32 °F /  0.0 °C 29.7in /  1007.0hPa Calm   2.9mph /  4.7km/h 94% 0in /  0.0mm
05:39 33.3 °F /  0.7 °C 32 °F /  0.0 °C 29.7in /  1007.0hPa WSW 3.6mph /  5.8km/h 4.3mph /  6.9km/h 94% 0in /  0.0mm
05:44 33.1 °F /  0.6 °C 32 °F /  0.0 °C 29.7in /  1007.0hPa Calm   4.3mph /  6.9km/h 93% 0in /  0.0mm
05:49 33.3 °F /  0.7 °C 32 °F /  0.0 °C 29.7in /  1007.0hPa Calm   4.3mph /  6.9km/h 94% 0in /  0.0mm
05:54 33.6 °F /  0.9 °C 32 °F /  0.0 °C 29.7in /  1007.0hPa Calm   4.3mph /  6.9km/h 94% 0in /  0.0mm
06:00 33.8 °F /  1.0 °C 33.8 °F /  1.0 °C 29.7in /  1007.0hPa Calm   3.4mph /  5.5km/h 95% 0in /  0.0mm
06:05 33.8 °F /  1.0 °C 33.8 °F /  1.0 °C 29.7in /  1007.0hPa Calm   3.8mph /  6.1km/h 95% 0in /  0.0mm
06:10 33.8 °F /  1.0 °C 33.8 °F /  1.0 °C 29.7in /  1007.0hPa Calm   3.8mph /  6.1km/h 95% 0in /  0.0mm
06:15 33.6 °F /  0.9 °C 33.8 °F /  1.0 °C 29.7in /  1007.0hPa Calm   2.7mph /  4.3km/h 95% 0in /  0.0mm
06:20 33.3 °F /  0.7 °C 32 °F /  0.0 °C 29.7in /  1007.0hPa Calm   2.7mph /  4.3km/h 95% 0in /  0.0mm
06:25 33.1 °F /  0.6 °C 32 °F /  0.0 °C 29.7in /  1007.0hPa Calm     94% 0in /  0.0mm
06:30 32.9 °F /  0.5 °C 32 °F /  0.0 °C 29.7in /  1007.0hPa Calm     94% 0in /  0.0mm
06:35 32.5 °F /  0.3 °C 32 °F /  0.0 °C 29.7in /  1007.0hPa WSW 2mph /  3.2km/h 2mph /  3.2km/h 93% 0in /  0.0mm
06:40 32.2 °F /  0.1 °C 30.2 °F /  -1.0 °C 29.7in /  1007.0hPa Calm   2mph /  3.2km/h 93% 0in /  0.0mm
06:45 32 °F /  0.0 °C 28.4 °F /  -2.0 °C 29.7in /  1007.0hPa Calm     93% 0in /  0.0mm
06:50 31.8 °F /  -0.1 °C 28.4 °F /  -2.0 °C 29.7in /  1007.0hPa Calm     93% 0in /  0.0mm
06:55 31.6 °F /  -0.2 °C 28.4 °F /  -2.0 °C 29.7in /  1007.0hPa Calm     94% 0in /  0.0mm
07:00 31.6 °F /  -0.2 °C 28.4 °F /  -2.0 °C 29.7in /  1007.0hPa Calm     94% 0in /  0.0mm
07:05 32 °F /  0.0 °C 30.2 °F /  -1.0 °C 29.7in /  1007.0hPa Calm     95% 0in /  0.0mm
07:10 32.2 °F /  0.1 °C 32 °F /  0.0 °C 29.7in /  1007.0hPa Calm     96% 0in /  0.0mm
07:15 32.2 °F /  0.1 °C 32 °F /  0.0 °C 29.7in /  1007.0hPa Calm     96% 0in /  0.0mm
07:20 31.8 °F /  -0.1 °C 30.2 °F /  -1.0 °C 29.7in /  1007.0hPa Calm     96% 0in /  0.0mm
07:25 31.5 °F /  -0.3 °C 28.4 °F /  -2.0 °C 29.7in /  1007.0hPa Calm     95% 0in /  0.0mm
07:30 31.5 °F /  -0.3 °C 28.4 °F /  -2.0 °C 29.8in /  1008.0hPa Calm     95% 0in /  0.0mm
07:36 31.8 °F /  -0.1 °C 30.2 °F /  -1.0 °C 29.8in /  1008.0hPa Calm     96% 0in /  0.0mm
07:41 31.8 °F /  -0.1 °C 30.2 °F /  -1.0 °C 29.8in /  1008.0hPa Calm     96% 0in /  0.0mm
07:46 31.8 °F /  -0.1 °C 30.2 °F /  -1.0 °C 29.8in /  1008.0hPa Calm     97% 0in /  0.0mm
07:51 31.8 °F /  -0.1 °C 30.2 °F /  -1.0 °C 29.8in /  1008.0hPa Calm     97% 0in /  0.0mm
07:56 31.5 °F /  -0.3 °C 30.2 °F /  -1.0 °C 29.8in /  1008.0hPa Calm     97% 0in /  0.0mm
08:01 31.3 °F /  -0.4 °C 30.2 °F /  -1.0 °C 29.8in /  1009.0hPa Calm     96% 0in /  0.0mm
08:06 31.1 °F /  -0.5 °C 28.4 °F /  -2.0 °C 29.8in /  1009.0hPa Calm     96% 0in /  0.0mm
08:11 30.9 °F /  -0.6 °C 28.4 °F /  -2.0 °C 29.8in /  1009.0hPa Calm     96% 0in /  0.0mm
08:16 30.9 °F /  -0.6 °C 28.4 °F /  -2.0 °C 29.8in /  1008.0hPa Calm   2.2mph /  3.5km/h 96% 0in /  0.0mm
08:21 30.7 °F /  -0.7 °C 28.4 °F /  -2.0 °C 29.8in /  1008.0hPa Calm   2.2mph /  3.5km/h 96% 0in /  0.0mm
08:26 30.7 °F /  -0.7 °C 28.4 °F /  -2.0 °C 29.8in /  1008.0hPa Calm     97% 0in /  0.0mm
08:31 30.7 °F /  -0.7 °C 28.4 °F /  -2.0 °C 29.8in /  1009.0hPa Calm     97% 0in /  0.0mm
08:36 30.7 °F /  -0.7 °C 28.4 °F /  -2.0 °C 29.8in /  1009.0hPa Calm     97% 0in /  0.0mm
08:41 30.7 °F /  -0.7 °C 28.4 °F /  -2.0 °C 29.8in /  1009.0hPa Calm     97% 0in /  0.0mm
08:46 30.7 °F /  -0.7 °C 28.4 °F /  -2.0 °C 29.8in /  1009.0hPa Calm     97% 0in /  0.0mm
08:51 30.6 °F /  -0.8 °C 28.4 °F /  -2.0 °C 29.8in /  1009.0hPa Calm   3.1mph /  5.0km/h 97% 0in /  0.0mm
08:57 30.7 °F /  -0.7 °C 28.4 °F /  -2.0 °C 29.8in /  1009.0hPa Calm   3.1mph /  5.0km/h 97% 0in /  0.0mm
09:02 30.7 °F /  -0.7 °C 30.2 °F /  -1.0 °C 29.8in /  1009.0hPa Calm     98% 0in /  0.0mm
09:07 30.6 °F /  -0.8 °C 28.4 °F /  -2.0 °C 29.8in /  1009.0hPa Calm     98% 0in /  0.0mm
09:12 30.6 °F /  -0.8 °C 28.4 °F /  -2.0 °C 29.8in /  1009.0hPa Calm     98% 0in /  0.0mm
09:17 31.1 °F /  -0.5 °C 30.2 °F /  -1.0 °C 29.8in /  1008.0hPa Calm   2.9mph /  4.7km/h 98% 0in /  0.0mm
09:22 31.8 °F /  -0.1 °C 30.2 °F /  -1.0 °C 29.8in /  1008.0hPa Calm   2.9mph /  4.7km/h 98% 0in /  0.0mm
09:27 32.2 °F /  0.1 °C 32 °F /  0.0 °C 29.8in /  1008.0hPa Calm   2.5mph /  4.0km/h 98% 0in /  0.0mm
09:32 32.4 °F /  0.2 °C 32 °F /  0.0 °C 29.8in /  1009.0hPa Calm   2.7mph /  4.3km/h 98% 0in /  0.0mm
09:37 33.1 °F /  0.6 °C 33.8 °F /  1.0 °C 29.8in /  1009.0hPa Calm   2.7mph /  4.3km/h 98% 0in /  0.0mm
09:42 33.1 °F /  0.6 °C 33.8 °F /  1.0 °C 29.8in /  1009.0hPa West 0.9mph /  1.4km/h 4mph /  6.4km/h 98% 0in /  0.0mm
09:47 33.8 °F /  1.0 °C 33.8 °F /  1.0 °C 29.8in /  1009.0hPa Calm   4.3mph /  6.9km/h 98% 0in /  0.0mm
09:52 34.2 °F /  1.2 °C 33.8 °F /  1.0 °C 29.8in /  1009.0hPa Calm   4.3mph /  6.9km/h 98% 0in /  0.0mm
09:57 34.3 °F /  1.3 °C 33.8 °F /  1.0 °C 29.8in /  1009.0hPa WSW 4.9mph /  7.9km/h 4.9mph /  7.9km/h 98% 0in /  0.0mm
10:02 34.3 °F /  1.3 °C 33.8 °F /  1.0 °C 29.8in /  1009.0hPa WSW 4.7mph /  7.6km/h 5.6mph /  9.0km/h 98% 0in /  0.0mm
10:07 35.4 °F /  1.9 °C 35.6 °F /  2.0 °C 29.8in /  1009.0hPa Calm   5.6mph /  9.0km/h 98% 0in /  0.0mm
10:12 35.8 °F /  2.1 °C 35.6 °F /  2.0 °C 29.8in /  1009.0hPa West 1.1mph /  1.8km/h 4.3mph /  6.9km/h 98% 0in /  0.0mm
10:17 36.1 °F /  2.3 °C 37.4 °F /  3.0 °C 29.8in /  1009.0hPa WSW 4.9mph /  7.9km/h 4.9mph /  7.9km/h 98% 0in /  0.0mm
10:22 36.5 °F /  2.5 °C 37.4 °F /  3.0 °C 29.8in /  1009.0hPa Calm   4.9mph /  7.9km/h 98% 0in /  0.0mm
10:27 36.7 °F /  2.6 °C 37.4 °F /  3.0 °C 29.8in /  1009.0hPa Calm   4.9mph /  7.9km/h 98% 0in /  0.0mm
10:32 36.7 °F /  2.6 °C 37.4 °F /  3.0 °C 29.8in /  1009.0hPa WSW 1.3mph /  2.1km/h 4.9mph /  7.9km/h 98% 0in /  0.0mm
10:37 37.6 °F /  3.1 °C 37.4 °F /  3.0 °C 29.8in /  1009.0hPa WSW 3.8mph /  6.1km/h 6mph /  9.7km/h 98% 0in /  0.0mm
10:42 38.5 °F /  3.6 °C 39.2 °F /  4.0 °C 29.8in /  1009.0hPa WSW 5.8mph /  9.3km/h 6.5mph /  10.5km/h 98% 0in /  0.0mm
10:48 39 °F /  3.9 °C 39.2 °F /  4.0 °C 29.8in /  1009.0hPa WSW 6.9mph /  11.1km/h 7.6mph /  12.2km/h 98% 0in /  0.0mm
10:53 39.6 °F /  4.2 °C 39.2 °F /  4.0 °C 29.8in /  1009.0hPa WSW 6.9mph /  11.1km/h 7.6mph /  12.2km/h 98% 0in /  0.0mm
10:58 39.9 °F /  4.4 °C 39.2 °F /  4.0 °C 29.8in /  1009.0hPa WSW 5.6mph /  9.0km/h 8.5mph /  13.7km/h 98% 0in /  0.0mm
11:03 40.5 °F /  4.7 °C 41 °F /  5.0 °C 29.8in /  1009.0hPa WSW 5.8mph /  9.3km/h 8.5mph /  13.7km/h 98% 0in /  0.0mm
11:08 41 °F /  5.0 °C 41 °F /  5.0 °C 29.8in /  1009.0hPa WSW 4.3mph /  6.9km/h 7.8mph /  12.6km/h 97% 0in /  0.0mm
11:13 41.4 °F /  5.2 °C 41 °F /  5.0 °C 29.8in /  1009.0hPa WSW 4.9mph /  7.9km/h 7.8mph /  12.6km/h 96% 0in /  0.0mm
11:18 41.9 °F /  5.5 °C 41 °F /  5.0 °C 29.8in /  1009.0hPa WSW 6.3mph /  10.1km/h 6.5mph /  10.5km/h 95% 0in /  0.0mm
11:23 42.1 °F /  5.6 °C 41 °F /  5.0 °C 29.8in /  1009.0hPa SW 4.3mph /  6.9km/h 8.1mph /  13.0km/h 94% 0in /  0.0mm
11:28 42.4 °F /  5.8 °C 41 °F /  5.0 °C 29.8in /  1009.0hPa WSW 1.3mph /  2.1km/h 8.1mph /  13.0km/h 92% 0in /  0.0mm
11:33 42.4 °F /  5.8 °C 41 °F /  5.0 °C 29.8in /  1010.0hPa WSW 5.8mph /  9.3km/h 7.6mph /  12.2km/h 92% 0in /  0.0mm
11:38 42.8 °F /  6.0 °C 41 °F /  5.0 °C 29.8in /  1010.0hPa WSW 6.5mph /  10.5km/h 8.5mph /  13.7km/h 89% 0in /  0.0mm
11:43 42.8 °F /  6.0 °C 41 °F /  5.0 °C 29.8in /  1010.0hPa WSW 9.6mph /  15.4km/h 11.2mph /  18.0km/h 89% 0in /  0.0mm
11:48 42.8 °F /  6.0 °C 41 °F /  5.0 °C 29.8in /  1010.0hPa WSW 8.7mph /  14.0km/h 11.2mph /  18.0km/h 89% 0in /  0.0mm
11:53 43.3 °F /  6.3 °C 39.2 °F /  4.0 °C 29.8in /  1010.0hPa WSW 7.8mph /  12.6km/h 10.1mph /  16.3km/h 84% 0in /  0.0mm
11:58 43.5 °F /  6.4 °C 39.2 °F /  4.0 °C 29.8in /  1010.0hPa WSW 6.3mph /  10.1km/h 9.6mph /  15.4km/h 83% 0in /  0.0mm
12:03 43.7 °F /  6.5 °C 39.2 °F /  4.0 °C 29.8in /  1010.0hPa SW 7.4mph /  11.9km/h 9.6mph /  15.4km/h 83% 0in /  0.0mm
12:08 43.7 °F /  6.5 °C 39.2 °F /  4.0 °C 29.8in /  1010.0hPa WSW 5.6mph /  9.0km/h 8.1mph /  13.0km/h 83% 0in /  0.0mm
12:13 44.6 °F /  7.0 °C 39.2 °F /  4.0 °C 29.8in /  1010.0hPa WSW 8.5mph /  13.7km/h 10.3mph /  16.6km/h 81% 0in /  0.0mm
12:18 44.6 °F /  7.0 °C 39.2 °F /  4.0 °C 29.8in /  1010.0hPa WSW 7.8mph /  12.6km/h 10.3mph /  16.6km/h 81% 0in /  0.0mm
12:23 45.1 °F /  7.3 °C 39.2 °F /  4.0 °C 29.8in /  1010.0hPa WSW 9.8mph /  15.8km/h 10.5mph /  16.9km/h 79% 0in /  0.0mm
12:28 45.1 °F /  7.3 °C 39.2 °F /  4.0 °C 29.8in /  1009.0hPa WSW 14.5mph /  23.3km/h 14.5mph /  23.3km/h 77% 0in /  0.0mm
12:33 45.3 °F /  7.4 °C 39.2 °F /  4.0 °C 29.8in /  1009.0hPa WSW 7.8mph /  12.6km/h 14.5mph /  23.3km/h 77% 0in /  0.0mm
12:38 45.3 °F /  7.4 °C 39.2 °F /  4.0 °C 29.8in /  1009.0hPa WSW 8.7mph /  14.0km/h 12.5mph /  20.1km/h 77% 0in /  0.0mm
12:43 45.3 °F /  7.4 °C 39.2 °F /  4.0 °C 29.8in /  1010.0hPa WSW 7.8mph /  12.6km/h 13.4mph /  21.6km/h 77% 0in /  0.0mm
12:48 45.3 °F /  7.4 °C 39.2 °F /  4.0 °C 29.8in /  1010.0hPa WSW 8.1mph /  13.0km/h 13.4mph /  21.6km/h 77% 0in /  0.0mm
12:54 45.9 °F /  7.7 °C 39.2 °F /  4.0 °C 29.8in /  1010.0hPa West 8.5mph /  13.7km/h 11mph /  17.7km/h 75% 0in /  0.0mm
12:59 45.9 °F /  7.7 °C 39.2 °F /  4.0 °C 29.8in /  1009.0hPa WSW 8.7mph /  14.0km/h 11mph /  17.7km/h 75% 0in /  0.0mm
13:04 45.9 °F /  7.7 °C 39.2 °F /  4.0 °C 29.8in /  1009.0hPa WSW 7.6mph /  12.2km/h 12.3mph /  19.8km/h 75% 0in /  0.0mm
13:09 46.4 °F /  8.0 °C 39.2 °F /  4.0 °C 29.8in /  1009.0hPa WSW 7.6mph /  12.2km/h 15.2mph /  24.5km/h 73% 0in /  0.0mm
13:14 45.9 °F /  7.7 °C 37.4 °F /  3.0 °C 29.8in /  1009.0hPa WSW 11mph /  17.7km/h 15.2mph /  24.5km/h 73% 0in /  0.0mm
13:19 45.9 °F /  7.7 °C 37.4 °F /  3.0 °C 29.8in /  1009.0hPa WSW 10.3mph /  16.6km/h 13mph /  20.9km/h 73% 0in /  0.0mm
13:24 45.9 °F /  7.7 °C 37.4 °F /  3.0 °C 29.8in /  1009.0hPa WSW 6.3mph /  10.1km/h 13mph /  20.9km/h 73% 0in /  0.0mm
13:29 45.9 °F /  7.7 °C 37.4 °F /  3.0 °C 29.8in /  1009.0hPa WSW 13mph /  20.9km/h 14.8mph /  23.8km/h 73% 0in /  0.0mm
13:34 45.9 °F /  7.7 °C 37.4 °F /  3.0 °C 29.8in /  1009.0hPa WSW 7.6mph /  12.2km/h 14.8mph /  23.8km/h 73% 0in /  0.0mm
13:39 45.9 °F /  7.7 °C 37.4 °F /  3.0 °C 29.8in /  1009.0hPa WSW 10.5mph /  16.9km/h 14.5mph /  23.3km/h 73% 0in /  0.0mm
13:44 45.9 °F /  7.7 °C 37.4 °F /  3.0 °C 29.8in /  1009.0hPa WSW 7.8mph /  12.6km/h 14.1mph /  22.7km/h 73% 0in /  0.0mm
13:49 45.9 °F /  7.7 °C 39.2 °F /  4.0 °C 29.8in /  1009.0hPa West 7.6mph /  12.2km/h 12.5mph /  20.1km/h 75% 0in /  0.0mm
13:54 45.9 °F /  7.7 °C 39.2 °F /  4.0 °C 29.8in /  1009.0hPa West 8.7mph /  14.0km/h 12.5mph /  20.1km/h 75% 0in /  0.0mm
13:59 45.9 °F /  7.7 °C 39.2 °F /  4.0 °C 29.8in /  1009.0hPa WSW 7.6mph /  12.2km/h 14.5mph /  23.3km/h 75% 0in /  0.0mm
14:04 45.9 °F /  7.7 °C 39.2 °F /  4.0 °C 29.8in /  1009.0hPa WSW 10.5mph /  16.9km/h 14.5mph /  23.3km/h 75% 0in /  0.0mm
14:09 45.9 °F /  7.7 °C 39.2 °F /  4.0 °C 29.8in /  1009.0hPa WSW 10.1mph /  16.3km/h 13mph /  20.9km/h 75% 0in /  0.0mm
14:14 45.7 °F /  7.6 °C 37.4 °F /  3.0 °C 29.8in /  1009.0hPa WSW 6mph /  9.7km/h 11.9mph /  19.1km/h 74% 0in /  0.0mm
14:19 46.4 °F /  8.0 °C 39.2 °F /  4.0 °C 29.8in /  1009.0hPa WSW 8.7mph /  14.0km/h 10.3mph /  16.6km/h 72% 0in /  0.0mm
14:24 46.4 °F /  8.0 °C 39.2 °F /  4.0 °C 29.8in /  1009.0hPa WNW 6mph /  9.7km/h 11mph /  17.7km/h 72% 0in /  0.0mm
14:29 46.4 °F /  8.0 °C 39.2 °F /  4.0 °C 29.8in /  1008.0hPa West 7.8mph /  12.6km/h 12.8mph /  20.6km/h 72% 0in /  0.0mm
14:35 46.4 °F /  8.0 °C 39.2 °F /  4.0 °C 29.8in /  1008.0hPa WSW 8.1mph /  13.0km/h 17.4mph /  28.0km/h 72% 0in /  0.0mm
14:40 46.4 °F /  8.0 °C 39.2 °F /  4.0 °C 29.8in /  1008.0hPa West 15.7mph /  25.3km/h 17.4mph /  28.0km/h 72% 0in /  0.0mm
14:45 46.4 °F /  8.0 °C 39.2 °F /  4.0 °C 29.8in /  1009.0hPa West 15.4mph /  24.8km/h 20.1mph /  32.3km/h 72% 0in /  0.0mm
14:50 47.3 °F /  8.5 °C 33.8 °F /  1.0 °C 29.8in /  1009.0hPa WSW 9.2mph /  14.8km/h 20.1mph /  32.3km/h 58% 0in /  0.0mm
14:55 47.3 °F /  8.5 °C 33.8 °F /  1.0 °C 29.8in /  1009.0hPa West 13mph /  20.9km/h 17.4mph /  28.0km/h 58% 0in /  0.0mm
15:00 47.3 °F /  8.5 °C 33.8 °F /  1.0 °C 29.8in /  1009.0hPa West 7.8mph /  12.6km/h 14.8mph /  23.8km/h 58% 0in /  0.0mm
15:05 47.3 °F /  8.5 °C 33.8 °F /  1.0 °C 29.8in /  1009.0hPa West 10.7mph /  17.2km/h 14.5mph /  23.3km/h 58% 0in /  0.0mm
15:10 47.3 °F /  8.5 °C 33.8 °F /  1.0 °C 29.8in /  1009.0hPa West 10.3mph /  16.6km/h 13.2mph /  21.2km/h 58% 0in /  0.0mm
15:15 47.3 °F /  8.5 °C 33.8 °F /  1.0 °C 29.8in /  1009.0hPa WSW 10.5mph /  16.9km/h 15.4mph /  24.8km/h 58% 0in /  0.0mm
15:20 47.3 °F /  8.5 °C 33.8 °F /  1.0 °C 29.8in /  1009.0hPa WSW 10.5mph /  16.9km/h 15.4mph /  24.8km/h 58% 0in /  0.0mm
15:25 47.3 °F /  8.5 °C 33.8 °F /  1.0 °C 29.8in /  1009.0hPa West 9.6mph /  15.4km/h 15.4mph /  24.8km/h 58% 0in /  0.0mm
15:30 47.3 °F /  8.5 °C 33.8 °F /  1.0 °C 29.8in /  1009.0hPa West 10.5mph /  16.9km/h 15.2mph /  24.5km/h 58% 0in /  0.0mm
15:35 47.3 °F /  8.5 °C 33.8 °F /  1.0 °C 29.8in /  1009.0hPa WSW 7.6mph /  12.2km/h 15.2mph /  24.5km/h 58% 0in /  0.0mm
15:40 47.3 °F /  8.5 °C 33.8 °F /  1.0 °C 29.8in /  1009.0hPa West 6.9mph /  11.1km/h 12.3mph /  19.8km/h 58% 0in /  0.0mm
15:45 47.3 °F /  8.5 °C 33.8 °F /  1.0 °C 29.8in /  1009.0hPa West 10.3mph /  16.6km/h 15.4mph /  24.8km/h 58% 0in /  0.0mm
15:50 46.4 °F /  8.0 °C 33.8 °F /  1.0 °C 29.8in /  1009.0hPa WSW 9.6mph /  15.4km/h 15.4mph /  24.8km/h 59% 0in /  0.0mm
15:55 46.4 °F /  8.0 °C 33.8 °F /  1.0 °C 29.8in /  1009.0hPa WNW 15.2mph /  24.5km/h 17mph /  27.4km/h 59% 0in /  0.0mm
16:00 46.4 °F /  8.0 °C 33.8 °F /  1.0 °C 29.8in /  1009.0hPa West 9.6mph /  15.4km/h 17mph /  27.4km/h 59% 0in /  0.0mm
16:05 46.4 °F /  8.0 °C 33.8 °F /  1.0 °C 29.8in /  1009.0hPa West 10.5mph /  16.9km/h 14.8mph /  23.8km/h 59% 0in /  0.0mm
16:10 46.4 °F /  8.0 °C 33.8 °F /  1.0 °C 29.8in /  1009.0hPa West 6.9mph /  11.1km/h 14.8mph /  23.8km/h 59% 0in /  0.0mm
16:15 45.7 °F /  7.6 °C 32 °F /  0.0 °C 29.8in /  1008.0hPa West 8.5mph /  13.7km/h 14.8mph /  23.8km/h 58% 0in /  0.0mm
16:20 45.7 °F /  7.6 °C 32 °F /  0.0 °C 29.8in /  1008.0hPa West 6.5mph /  10.5km/h 13.2mph /  21.2km/h 58% 0in /  0.0mm
16:25 45.1 °F /  7.3 °C 32 °F /  0.0 °C 29.8in /  1008.0hPa WSW 5.4mph /  8.7km/h 8.5mph /  13.7km/h 61% 0in /  0.0mm
16:30 45.1 °F /  7.3 °C 32 °F /  0.0 °C 29.8in /  1008.0hPa WSW 6.5mph /  10.5km/h 11mph /  17.7km/h 61% 0in /  0.0mm
16:35 45.1 °F /  7.3 °C 32 °F /  0.0 °C 29.8in /  1008.0hPa NW 6mph /  9.7km/h 11mph /  17.7km/h 61% 0in /  0.0mm
16:40 45.1 °F /  7.3 °C 32 °F /  0.0 °C 29.8in /  1008.0hPa West 7.8mph /  12.6km/h 11mph /  17.7km/h 61% 0in /  0.0mm
16:45 45.1 °F /  7.3 °C 32 °F /  0.0 °C 29.8in /  1008.0hPa WNW 7.8mph /  12.6km/h 9.8mph /  15.8km/h 61% 0in /  0.0mm
16:51 45.1 °F /  7.3 °C 32 °F /  0.0 °C 29.8in /  1008.0hPa West 6.3mph /  10.1km/h 9.4mph /  15.1km/h 61% 0in /  0.0mm
16:56 45.1 °F /  7.3 °C 32 °F /  0.0 °C 29.8in /  1008.0hPa West 4.3mph /  6.9km/h 10.5mph /  16.9km/h 61% 0in /  0.0mm
17:01 45.1 °F /  7.3 °C 32 °F /  0.0 °C 29.8in /  1009.0hPa West 7.6mph /  12.2km/h 10.5mph /  16.9km/h 61% 0in /  0.0mm
17:06 45.1 °F /  7.3 °C 32 °F /  0.0 °C 29.8in /  1009.0hPa West 4.9mph /  7.9km/h 9.6mph /  15.4km/h 61% 0in /  0.0mm
17:11 45.1 °F /  7.3 °C 32 °F /  0.0 °C 29.8in /  1009.0hPa West 1.1mph /  1.8km/h 8.1mph /  13.0km/h 61% 0in /  0.0mm
17:16 45.1 °F /  7.3 °C 32 °F /  0.0 °C 29.8in /  1009.0hPa West 6.3mph /  10.1km/h 7.2mph /  11.6km/h 61% 0in /  0.0mm
17:21 45.1 °F /  7.3 °C 32 °F /  0.0 °C 29.8in /  1009.0hPa WSW 5.8mph /  9.3km/h 10.1mph /  16.3km/h 61% 0in /  0.0mm
17:26 45.1 °F /  7.3 °C 32 °F /  0.0 °C 29.8in /  1009.0hPa West 4.9mph /  7.9km/h 10.1mph /  16.3km/h 61% 0in /  0.0mm
17:31 40.3 °F /  4.6 °C 32 °F /  0.0 °C 29.8in /  1009.0hPa WSW 5.8mph /  9.3km/h 6.5mph /  10.5km/h 72% 0in /  0.0mm
17:36 39.9 °F /  4.4 °C 32 °F /  0.0 °C 29.8in /  1009.0hPa West 7.2mph /  11.6km/h 7.8mph /  12.6km/h 73% 0in /  0.0mm
17:41 39.9 °F /  4.4 °C 32 °F /  0.0 °C 29.8in /  1009.0hPa WSW 6mph /  9.7km/h 7.8mph /  12.6km/h 74% 0in /  0.0mm
17:46 39.6 °F /  4.2 °C 32 °F /  0.0 °C 29.8in /  1009.0hPa WSW 3.4mph /  5.5km/h 7.6mph /  12.2km/h 74% 0in /  0.0mm
17:51 39.2 °F /  4.0 °C 32 °F /  0.0 °C 29.8in /  1009.0hPa WSW 6.5mph /  10.5km/h 6.5mph /  10.5km/h 75% 0in /  0.0mm
17:56 39 °F /  3.9 °C 32 °F /  0.0 °C 29.8in /  1009.0hPa SW 5.6mph /  9.0km/h 6.5mph /  10.5km/h 76% 0in /  0.0mm
18:01 38.8 °F /  3.8 °C 32 °F /  0.0 °C 29.8in /  1009.0hPa SSW 3.6mph /  5.8km/h 6.5mph /  10.5km/h 76% 0in /  0.0mm
18:06 38.7 °F /  3.7 °C 32 °F /  0.0 °C 29.8in /  1009.0hPa SW 3.1mph /  5.0km/h 5.6mph /  9.0km/h 77% 0in /  0.0mm
18:11 38.7 °F /  3.7 °C 32 °F /  0.0 °C 29.8in /  1009.0hPa SSW 5.4mph /  8.7km/h 5.4mph /  8.7km/h 77% 0in /  0.0mm
18:16 38.7 °F /  3.7 °C 32 °F /  0.0 °C 29.8in /  1009.0hPa WSW 4.9mph /  7.9km/h 6mph /  9.7km/h 77% 0in /  0.0mm
18:21 38.7 °F /  3.7 °C 32 °F /  0.0 °C 29.8in /  1009.0hPa WSW 3.6mph /  5.8km/h 6mph /  9.7km/h 77% 0in /  0.0mm
18:26 38.7 °F /  3.7 °C 32 °F /  0.0 °C 29.8in /  1009.0hPa Calm   6mph /  9.7km/h 77% 0in /  0.0mm
18:31 38.7 °F /  3.7 °C 32 °F /  0.0 °C 29.8in /  1009.0hPa Calm   4mph /  6.4km/h 77% 0in /  0.0mm
18:36 38.7 °F /  3.7 °C 32 °F /  0.0 °C 29.8in /  1009.0hPa Calm   3.4mph /  5.5km/h 77% 0in /  0.0mm
18:41 38.7 °F /  3.7 °C 32 °F /  0.0 °C 29.8in /  1009.0hPa Calm     77% 0in /  0.0mm
18:46 38.7 °F /  3.7 °C 32 °F /  0.0 °C 29.8in /  1009.0hPa Calm     77% 0in /  0.0mm
18:51 38.7 °F /  3.7 °C 32 °F /  0.0 °C 29.8in /  1009.0hPa Calm     77% 0in /  0.0mm
18:56 38.7 °F /  3.7 °C 32 °F /  0.0 °C 29.8in /  1009.0hPa Calm   3.8mph /  6.1km/h 77% 0in /  0.0mm
19:01 38.7 °F /  3.7 °C 32 °F /  0.0 °C 29.8in /  1009.0hPa WSW 0.9mph /  1.4km/h 4mph /  6.4km/h 77% 0in /  0.0mm
19:06 38.7 °F /  3.7 °C 32 °F /  0.0 °C 29.8in /  1009.0hPa Calm   5.8mph /  9.3km/h 77% 0in /  0.0mm
19:11 38.7 °F /  3.7 °C 32 °F /  0.0 °C 29.8in /  1009.0hPa Calm   5.8mph /  9.3km/h 77% 0in /  0.0mm
19:16 38.7 °F /  3.7 °C 32 °F /  0.0 °C 29.8in /  1010.0hPa Calm   5.6mph /  9.0km/h 77% 0in /  0.0mm
19:21 38.7 °F /  3.7 °C 32 °F /  0.0 °C 29.8in /  1010.0hPa Calm   5.6mph /  9.0km/h 77% 0in /  0.0mm
19:26 38.7 °F /  3.7 °C 32 °F /  0.0 °C 29.8in /  1010.0hPa Calm     77% 0in /  0.0mm
19:31 38.7 °F /  3.7 °C 32 °F /  0.0 °C 29.8in /  1009.0hPa Calm     77% 0in /  0.0mm
19:36 38.7 °F /  3.7 °C 32 °F /  0.0 °C 29.8in /  1009.0hPa Calm   4.5mph /  7.2km/h 77% 0in /  0.0mm
19:42 35.6 °F /  2.0 °C 32 °F /  0.0 °C 29.8in /  1009.0hPa Calm   4.5mph /  7.2km/h 84% 0in /  0.0mm
19:47 35.6 °F /  2.0 °C 32 °F /  0.0 °C 29.8in /  1009.0hPa Calm     84% 0in /  0.0mm
19:52 36 °F /  2.2 °C 32 °F /  0.0 °C 29.8in /  1009.0hPa Calm     86% 0in /  0.0mm
19:57 36 °F /  2.2 °C 32 °F /  0.0 °C 29.8in /  1009.0hPa SSW 4mph /  6.4km/h 4mph /  6.4km/h 86% 0in /  0.0mm
20:02 36.3 °F /  2.4 °C 33.8 °F /  1.0 °C 29.8in /  1009.0hPa Calm   4mph /  6.4km/h 87% 0in /  0.0mm
20:07 36.3 °F /  2.4 °C 33.8 °F /  1.0 °C 29.8in /  1009.0hPa Calm   3.8mph /  6.1km/h 86% 0in /  0.0mm
20:12 36.1 °F /  2.3 °C 33.8 °F /  1.0 °C 29.8in /  1009.0hPa SSW 2.2mph /  3.5km/h 2.5mph /  4.0km/h 86% 0in /  0.0mm
20:17 36 °F /  2.2 °C 32 °F /  0.0 °C 29.8in /  1009.0hPa Calm   2.5mph /  4.0km/h 86% 0in /  0.0mm
20:22 35.8 °F /  2.1 °C 32 °F /  0.0 °C 29.8in /  1009.0hPa Calm   2.2mph /  3.5km/h 86% 0in /  0.0mm
20:27 35.8 °F /  2.1 °C 32 °F /  0.0 °C 29.8in /  1009.0hPa South 2.7mph /  4.3km/h 2.7mph /  4.3km/h 86% 0in /  0.0mm
20:32 35.8 °F /  2.1 °C 32 °F /  0.0 °C 29.8in /  1010.0hPa Calm   3.4mph /  5.5km/h 86% 0in /  0.0mm
20:37 35.8 °F /  2.1 °C 33.8 °F /  1.0 °C 29.8in /  1010.0hPa Calm   3.4mph /  5.5km/h 87% 0in /  0.0mm
20:42 35.6 °F /  2.0 °C 33.8 °F /  1.0 °C 29.8in /  1010.0hPa SSW 0.9mph /  1.4km/h 3.6mph /  5.8km/h 87% 0in /  0.0mm
20:47 35.6 °F /  2.0 °C 33.8 °F /  1.0 °C 29.8in /  1009.0hPa SSW 3.6mph /  5.8km/h 3.6mph /  5.8km/h 87% 0in /  0.0mm
20:52 35.8 °F /  2.1 °C 33.8 °F /  1.0 °C 29.8in /  1009.0hPa Calm   4.3mph /  6.9km/h 87% 0in /  0.0mm
20:57 36.1 °F /  2.3 °C 33.8 °F /  1.0 °C 29.8in /  1009.0hPa Calm   4.3mph /  6.9km/h 88% 0in /  0.0mm
21:02 36.3 °F /  2.4 °C 33.8 °F /  1.0 °C 29.8in /  1009.0hPa SSW 4.9mph /  7.9km/h 6.3mph /  10.1km/h 88% 0in /  0.0mm
21:07 36.7 °F /  2.6 °C 33.8 °F /  1.0 °C 29.8in /  1009.0hPa Calm   7.6mph /  12.2km/h 89% 0in /  0.0mm
21:12 36.7 °F /  2.6 °C 33.8 °F /  1.0 °C 29.8in /  1009.0hPa Calm   7.6mph /  12.2km/h 89% 0in /  0.0mm
21:17 36.7 °F /  2.6 °C 33.8 °F /  1.0 °C 29.8in /  1009.0hPa Calm   5.6mph /  9.0km/h 89% 0in /  0.0mm
21:22 36.3 °F /  2.4 °C 33.8 °F /  1.0 °C 29.8in /  1009.0hPa WSW 4.7mph /  7.6km/h 4.9mph /  7.9km/h 88% 0in /  0.0mm
21:27 36.1 °F /  2.3 °C 33.8 °F /  1.0 °C 29.8in /  1009.0hPa WSW 6mph /  9.7km/h 6mph /  9.7km/h 88% 0in /  0.0mm
21:32 36.3 °F /  2.4 °C 33.8 °F /  1.0 °C 29.8in /  1010.0hPa Calm   6mph /  9.7km/h 89% 0in /  0.0mm
21:37 36.5 °F /  2.5 °C 33.8 °F /  1.0 °C 29.8in /  1010.0hPa Calm   6mph /  9.7km/h 89% 0in /  0.0mm
21:42 36.5 °F /  2.5 °C 33.8 °F /  1.0 °C 29.8in /  1010.0hPa Calm   4.3mph /  6.9km/h 89% 0in /  0.0mm
21:47 36.5 °F /  2.5 °C 33.8 °F /  1.0 °C 29.8in /  1010.0hPa Calm   4mph /  6.4km/h 89% 0in /  0.0mm
21:52 36.3 °F /  2.4 °C 33.8 °F /  1.0 °C 29.8in /  1010.0hPa Calm   4.5mph /  7.2km/h 89% 0in /  0.0mm
21:57 36.1 °F /  2.3 °C 33.8 °F /  1.0 °C 29.8in /  1010.0hPa Calm   4.5mph /  7.2km/h 88% 0in /  0.0mm
22:02 36.1 °F /  2.3 °C 33.8 °F /  1.0 °C 29.8in /  1010.0hPa Calm   4.3mph /  6.9km/h 89% 0in /  0.0mm
22:07 35.8 °F /  2.1 °C 33.8 °F /  1.0 °C 29.8in /  1010.0hPa SSW 3.8mph /  6.1km/h 4.3mph /  6.9km/h 88% 0in /  0.0mm
22:13 36 °F /  2.2 °C 33.8 °F /  1.0 °C 29.8in /  1010.0hPa SSW 3.4mph /  5.5km/h 4.9mph /  7.9km/h 89% 0in /  0.0mm
22:18 36 °F /  2.2 °C 33.8 °F /  1.0 °C 29.8in /  1010.0hPa Calm   4.9mph /  7.9km/h 89% 0in /  0.0mm
22:23 36 °F /  2.2 °C 33.8 °F /  1.0 °C 29.8in /  1010.0hPa West 2.7mph /  4.3km/h 4.3mph /  6.9km/h 90% 0in /  0.0mm
22:28 35.8 °F /  2.1 °C 33.8 °F /  1.0 °C 29.8in /  1010.0hPa Calm   2.7mph /  4.3km/h 90% 0in /  0.0mm
22:33 35.6 °F /  2.0 °C 33.8 °F /  1.0 °C 29.8in /  1010.0hPa Calm   2.2mph /  3.5km/h 89% 0in /  0.0mm
22:38 35.4 °F /  1.9 °C 33.8 °F /  1.0 °C 29.8in /  1010.0hPa Calm     89% 0in /  0.0mm
22:43 35.1 °F /  1.7 °C 32 °F /  0.0 °C 29.8in /  1010.0hPa Calm     89% 0in /  0.0mm
22:48 34.7 °F /  1.5 °C 32 °F /  0.0 °C 29.8in /  1010.0hPa Calm     89% 0in /  0.0mm
22:53 34.3 °F /  1.3 °C 32 °F /  0.0 °C 29.8in /  1010.0hPa Calm     88% 0in /  0.0mm
22:58 34 °F /  1.1 °C 30.2 °F /  -1.0 °C 29.8in /  1010.0hPa Calm     88% 0in /  0.0mm
23:03 33.8 °F /  1.0 °C 30.2 °F /  -1.0 °C 29.8in /  1010.0hPa Calm     88% 0in /  0.0mm
23:08 33.4 °F /  0.8 °C 32 °F /  0.0 °C 29.8in /  1010.0hPa Calm     89% 0in /  0.0mm
23:13 33.3 °F /  0.7 °C 30.2 °F /  -1.0 °C 29.8in /  1010.0hPa Calm     89% 0in /  0.0mm
23:18 33.1 °F /  0.6 °C 30.2 °F /  -1.0 °C 29.8in /  1010.0hPa Calm     89% 0in /  0.0mm
23:23 32.9 °F /  0.5 °C 30.2 °F /  -1.0 °C 29.8in /  1010.0hPa Calm     90% 0in /  0.0mm
23:28 32.7 °F /  0.4 °C 30.2 °F /  -1.0 °C 29.8in /  1010.0hPa Calm     90% 0in /  0.0mm
23:33 32.5 °F /  0.3 °C 30.2 °F /  -1.0 °C 29.8in /  1010.0hPa Calm     90% 0in /  0.0mm
23:38 32.7 °F /  0.4 °C 30.2 °F /  -1.0 °C 29.8in /  1010.0hPa Calm     91% 0in /  0.0mm
23:43 32.9 °F /  0.5 °C 32 °F /  0.0 °C 29.8in /  1010.0hPa Calm     91% 0in /  0.0mm
23:48 33.1 °F /  0.6 °C 32 °F /  0.0 °C 29.8in /  1010.0hPa Calm     92% 0in /  0.0mm
23:53 33.3 °F /  0.7 °C 32 °F /  0.0 °C 29.8in /  1010.0hPa Calm     92% 0in /  0.0mm
23:58 33.3 °F /  0.7 °C 32 °F /  0.0 °C 29.8in /  1010.0hPa Calm     93% 0in /  0.0mm
Données Historique de Météo Turbie

Mise a jour : 20/05/2018 19:38:13
Généré par Cumulus 1.9.4 (1099)